EBAW

Antwerp International (Deurne) Airport

Antwerp, Belgium
TAF EBAW 170500Z 1706/1715 29005KT 9999 SCT020
Issued Valid From Valid To
Aug-17 @ 05:00 UTC
(2 hours ago)
Aug-17 @ 06:00 UTC
(an hour ago)
Aug-17 @ 15:00 UTC
(in 8 hours)
Aug-17 @ 06:00 to Aug-17 @ 15:00
TAF EBAW 170500Z 1706/1715 29005KT 9999 SCT020
Wind Visibility Clouds
290° at 5 knots 10,000+ meters
  • Scattered at 2,000' AGL
TAF EBAW 170500Z 1706/1715 29005KT 9999 SCT020
Issued Aug-17 @ 05:00 UTC
(2 hours ago)
Valid From Aug-17 @ 06:00 UTC
(an hour ago)
Valid To Aug-17 @ 15:00 UTC
(in 8 hours)
Aug-17 @ 06:00 - Aug-17 @ 15:00
Wind Visibility
290° at 5 knots 10,000+ meters
Clouds
  • Scattered at 2,000' AGL